Time;durP1;ratioP1;P1;durP2;ratioP2;P2;SDS_P1;SDS_P2;PMS_P1;PMS_P2;Temp;Humidity;BMP_temperature;BMP_pressure;BME280_temperature;BME280_humidity;BME280_pressure;Samples;Min_cycle;Max_cycle;Signal;HPM_P1;HPM_P2
2021/09/19 00:01:18;;;;;;;3.40;1.97;;;;;;;;;;10391724;28;20029;-88
2021/09/19 00:06:18;;;;;;;3.10;1.80;;;;;;;;;;10391049;28;20030;-89
2021/09/19 00:11:19;;;;;;;2.27;1.83;;;;;;;;;;10390650;28;20034;-89
2021/09/19 00:16:19;;;;;;;2.77;1.73;;;;;;;;;;10385675;28;20468;-92
2021/09/19 00:21:20;;;;;;;2.03;1.70;;;;;;;;;;10390595;28;20029;-89
2021/09/19 00:26:21;;;;;;;3.25;1.73;;;;;;;;;;10389661;28;20108;-82
2021/09/19 00:31:21;;;;;;;3.43;1.97;;;;;;;;;;10389841;28;20068;-84
2021/09/19 00:36:22;;;;;;;4.10;1.77;;;;;;;;;;10387157;28;20036;-83
2021/09/19 00:41:22;;;;;;;5.40;1.67;;;;;;;;;;10389346;28;20495;-83
2021/09/19 00:46:22;;;;;;;2.10;1.73;;;;;;;;;;10389691;28;20052;-84
2021/09/19 00:51:23;;;;;;;3.73;2.00;;;;;;;;;;10389460;28;20046;-85
2021/09/19 00:56:25;;;;;;;2.90;1.90;;;;;;;;;;10388731;28;20025;-85
2021/09/19 01:01:26;;;;;;;4.53;1.90;;;;;;;;;;10387893;28;20029;-85
2021/09/19 01:06:27;;;;;;;3.33;2.20;;;;;;;;;;10388203;28;20113;-86
2021/09/19 01:11:27;;;;;;;2.72;1.80;;;;;;;;;;10388622;28;20117;-86
2021/09/19 01:16:28;;;;;;;7.33;2.17;;;;;;;;;;10387773;28;20072;-84
2021/09/19 01:21:28;;;;;;;3.15;1.98;;;;;;;;;;10388381;28;20452;-85
2021/09/19 01:26:30;;;;;;;3.65;2.03;;;;;;;;;;10388174;28;20498;-85
2021/09/19 01:31:30;;;;;;;3.65;1.63;;;;;;;;;;10387600;28;20033;-84
2021/09/19 01:36:34;;;;;;;3.87;1.80;;;;;;;;;;10388061;28;20041;-85
2021/09/19 01:41:35;;;;;;;2.10;1.85;;;;;;;;;;10387419;28;20073;-84
2021/09/19 01:46:36;;;;;;;3.30;1.70;;;;;;;;;;10385765;28;20056;-83
2021/09/19 01:51:36;;;;;;;2.65;1.60;;;;;;;;;;10387250;28;20026;-83
2021/09/19 01:56:37;;;;;;;1.95;1.75;;;;;;;;;;10387350;28;20368;-86
2021/09/19 02:01:37;;;;;;;4.77;2.20;;;;;;;;;;10385371;28;20076;-87
2021/09/19 02:06:38;;;;;;;3.03;1.70;;;;;;;;;;10387872;28;20030;-95
2021/09/19 02:11:38;;;;;;;1.90;1.67;;;;;;;;;;10390535;28;20060;-91
2021/09/19 02:16:38;;;;;;;3.93;1.60;;;;;;;;;;10395993;28;20956;-91
2021/09/19 02:21:39;;;;;;;3.53;1.60;;;;;;;;;;10395690;28;20586;-91
2021/09/19 02:26:39;;;;;;;6.80;1.83;;;;;;;;;;10395437;28;20026;-94
2021/09/19 02:31:39;;;;;;;17.90;2.70;;;;;;;;;;10395285;28;20495;-91
2021/09/19 02:36:40;;;;;;;17.07;1.93;;;;;;;;;;10394503;28;20486;-92
2021/09/19 02:41:41;;;;;;;5.00;1.60;;;;;;;;;;10394897;28;20096;-93
2021/09/19 02:46:41;;;;;;;10.63;1.97;;;;;;;;;;10395118;28;20081;-93
2021/09/19 02:51:42;;;;;;;5.63;1.80;;;;;;;;;;10394727;28;20046;-93
2021/09/19 02:56:42;;;;;;;4.00;1.55;;;;;;;;;;10394674;28;20499;-93
2021/09/19 03:01:42;;;;;;;2.57;1.37;;;;;;;;;;10393832;28;20057;-94
2021/09/19 03:06:43;;;;;;;8.80;1.80;;;;;;;;;;10393832;28;20029;-92
2021/09/19 03:11:43;;;;;;;3.90;1.80;;;;;;;;;;10393893;28;20037;-92
2021/09/19 03:16:43;;;;;;;3.33;1.70;;;;;;;;;;10394274;28;20126;-93
2021/09/19 03:21:44;;;;;;;5.70;1.70;;;;;;;;;;10394375;28;20060;-91
2021/09/19 03:26:44;;;;;;;3.33;1.70;;;;;;;;;;10393108;28;20845;-94
2021/09/19 03:31:45;;;;;;;2.97;1.40;;;;;;;;;;10393318;28;20030;-93
2021/09/19 03:36:45;;;;;;;4.37;1.70;;;;;;;;;;10392747;28;20034;-94
2021/09/19 03:41:45;;;;;;;6.03;1.60;;;;;;;;;;10393470;28;20069;-89
2021/09/19 03:46:46;;;;;;;5.10;1.30;;;;;;;;;;10392230;28;20456;-92
2021/09/19 03:51:46;;;;;;;2.30;1.30;;;;;;;;;;10392147;28;20044;-89
2021/09/19 03:56:46;;;;;;;6.17;1.60;;;;;;;;;;10392488;28;20486;-90
2021/09/19 04:01:47;;;;;;;5.17;1.30;;;;;;;;;;10392420;28;20026;-90
2021/09/19 04:06:47;;;;;;;6.23;1.30;;;;;;;;;;10391746;28;20037;-90
2021/09/19 04:11:47;;;;;;;4.80;1.63;;;;;;;;;;10391489;28;20121;-90
2021/09/19 04:16:48;;;;;;;4.57;1.30;;;;;;;;;;10391678;28;20041;-89
2021/09/19 04:21:48;;;;;;;1.50;1.37;;;;;;;;;;10391607;28;20042;-90
2021/09/19 04:26:49;;;;;;;1.30;1.20;;;;;;;;;;10391127;28;20030;-92
2021/09/19 04:31:49;;;;;;;1.40;1.27;;;;;;;;;;10390802;28;20041;-91
2021/09/19 04:36:49;;;;;;;3.38;1.48;;;;;;;;;;10390170;28;20025;-90
2021/09/19 04:41:50;;;;;;;2.80;1.43;;;;;;;;;;10390924;28;20072;-92
2021/09/19 04:46:50;;;;;;;3.50;1.43;;;;;;;;;;10390335;28;20452;-91
2021/09/19 04:51:51;;;;;;;1.67;1.20;;;;;;;;;;10389988;28;20026;-91
2021/09/19 04:56:51;;;;;;;1.60;1.50;;;;;;;;;;10389921;28;20037;-91
2021/09/19 05:01:51;;;;;;;1.48;1.30;;;;;;;;;;10389652;28;20041;-92
2021/09/19 05:06:52;;;;;;;1.33;1.00;;;;;;;;;;10389470;28;20033;-88
2021/09/19 05:11:52;;;;;;;3.97;1.50;;;;;;;;;;10387710;28;20454;-88
2021/09/19 05:16:53;;;;;;;7.33;0.97;;;;;;;;;;10388052;28;20037;-88
2021/09/19 05:21:53;;;;;;;7.57;1.53;;;;;;;;;;10389094;28;20475;-85
2021/09/19 05:26:53;;;;;;;1.43;1.33;;;;;;;;;;10386501;28;20121;-85
2021/09/19 05:31:54;;;;;;;3.43;1.73;;;;;;;;;;10388052;28;20030;-85
2021/09/19 05:36:54;;;;;;;4.70;2.70;;;;;;;;;;10387618;28;20056;-85
2021/09/19 05:41:54;;;;;;;3.13;2.63;;;;;;;;;;10387571;28;20057;-83
2021/09/19 05:46:55;;;;;;;8.50;8.00;;;;;;;;;;10386922;28;20080;-84
2021/09/19 05:51:55;;;;;;;7.67;6.93;;;;;;;;;;10384228;28;20030;-82
2021/09/19 05:56:55;;;;;;;2.13;1.57;;;;;;;;;;10383578;28;20790;-87
2021/09/19 06:01:57;;;;;;;1.65;1.40;;;;;;;;;;10387159;28;20076;-90
2021/09/19 06:06:57;;;;;;;1.30;1.20;;;;;;;;;;10387039;28;20040;-88
2021/09/19 06:11:58;;;;;;;3.37;1.60;;;;;;;;;;10386992;28;20564;-86
2021/09/19 06:16:58;;;;;;;1.97;1.50;;;;;;;;;;10386140;28;20459;-86
2021/09/19 06:22:01;;;;;;;7.83;1.90;;;;;;;;;;10386511;28;20037;-83
2021/09/19 06:27:01;;;;;;;11.75;1.67;;;;;;;;;;10385374;28;20041;-81
2021/09/19 06:32:02;;;;;;;11.20;1.50;;;;;;;;;;10384854;28;20053;-81
2021/09/19 06:37:03;;;;;;;11.77;2.00;;;;;;;;;;10385833;28;20040;-81
2021/09/19 06:42:04;;;;;;;15.48;2.00;;;;;;;;;;10386006;28;20061;-82
2021/09/19 06:47:04;;;;;;;14.63;1.83;;;;;;;;;;10385779;28;20046;-81
2021/09/19 06:52:04;;;;;;;14.23;2.07;;;;;;;;;;10385414;28;20525;-82
2021/09/19 06:57:05;;;;;;;8.70;1.90;;;;;;;;;;10385431;28;20109;-81
2021/09/19 07:02:05;;;;;;;6.90;2.10;;;;;;;;;;10392310;28;20478;-82
2021/09/19 07:07:06;;;;;;;7.55;1.80;;;;;;;;;;10393404;28;20471;-81
2021/09/19 07:12:06;;;;;;;5.77;2.00;;;;;;;;;;10393512;28;20109;-82
2021/09/19 07:17:07;;;;;;;9.23;2.47;;;;;;;;;;10393289;28;20448;-82
2021/09/19 07:22:07;;;;;;;3.17;2.00;;;;;;;;;;10393163;28;20471;-82
2021/09/19 07:27:08;;;;;;;4.20;2.10;;;;;;;;;;10392932;28;20115;-79
2021/09/19 07:32:12;;;;;;;7.90;2.00;;;;;;;;;;10391848;28;20061;-84
2021/09/19 07:37:14;;;;;;;7.57;2.03;;;;;;;;;;10391886;28;20527;-82
2021/09/19 07:42:14;;;;;;;4.43;1.92;;;;;;;;;;10392036;23;20050;-82
2021/09/19 07:47:15;;;;;;;6.22;1.83;;;;;;;;;;10364726;28;20092;-80
2021/09/19 07:52:16;;;;;;;6.55;2.00;;;;;;;;;;10357586;28;20121;-82
2021/09/19 07:57:16;;;;;;;6.22;1.77;;;;;;;;;;10365281;28;20102;-84
2021/09/19 08:02:17;;;;;;;4.10;1.90;;;;;;;;;;10351399;28;20034;-83
2021/09/19 08:07:20;;;;;;;4.75;2.00;;;;;;;;;;10351608;28;20030;-83
2021/09/19 08:12:21;;;;;;;3.15;1.80;;;;;;;;;;10369629;28;20529;-87
2021/09/19 08:17:21;;;;;;;2.23;1.70;;;;;;;;;;10357976;28;20061;-83
2021/09/19 08:22:22;;;;;;;1.90;1.63;;;;;;;;;;10357981;28;20109;-84
2021/09/19 08:27:22;;;;;;;1.53;1.40;;;;;;;;;;10366768;28;20033;-83
2021/09/19 08:32:23;;;;;;;3.23;2.10;;;;;;;;;;10360311;28;20026;-84
2021/09/19 08:37:23;;;;;;;2.33;1.70;;;;;;;;;;10354414;28;20045;-84
2021/09/19 08:42:24;;;;;;;2.73;1.70;;;;;;;;;;10358975;28;20049;-84
2021/09/19 08:47:29;;;;;;;4.50;1.95;;;;;;;;;;10359342;28;20034;-85
2021/09/19 08:52:29;;;;;;;8.43;2.10;;;;;;;;;;10351081;28;20362;-83
2021/09/19 08:57:29;;;;;;;2.47;1.70;;;;;;;;;;10348707;28;20038;-83
2021/09/19 09:02:44;;;;;;;2.77;1.60;;;;;;;;;;10362104;28;20037;-84
2021/09/19 09:07:45;;;;;;;9.27;1.70;;;;;;;;;;10348933;28;20033;-84
2021/09/19 09:12:45;;;;;;;5.40;2.13;;;;;;;;;;10349026;28;20022;-84
2021/09/19 09:17:45;;;;;;;3.73;2.20;;;;;;;;;;10391127;28;20066;-83
2021/09/19 09:22:46;;;;;;;2.37;1.90;;;;;;;;;;10347988;28;20022;-82
2021/09/19 09:27:49;;;;;;;7.77;1.70;;;;;;;;;;10375657;28;20189;-82
2021/09/19 09:33:04;;;;;;;6.05;2.30;;;;;;;;;;10346241;28;20041;-84
2021/09/19 09:38:17;;;;;;;6.13;2.03;;;;;;;;;;10362529;28;20034;-81
2021/09/19 09:43:19;;;;;;;6.72;2.05;;;;;;;;;;10357515;28;20080;-83
2021/09/19 09:48:31;;;;;;;12.98;2.67;;;;;;;;;;10359470;28;20061;-82
2021/09/19 09:53:31;;;;;;;7.72;2.17;;;;;;;;;;10346393;28;20026;-82
2021/09/19 09:58:32;;;;;;;6.72;1.67;;;;;;;;;;10361813;28;20031;-82
2021/09/19 10:03:32;;;;;;;7.07;2.33;;;;;;;;;;10346414;28;20037;-82
2021/09/19 10:08:33;;;;;;;7.70;2.42;;;;;;;;;;10345363;28;20857;-81
2021/09/19 10:13:36;;;;;;;5.13;2.00;;;;;;;;;;10359400;28;20037;-83
2021/09/19 10:18:37;;;;;;;2.17;1.80;;;;;;;;;;10359968;28;20423;-81
2021/09/19 10:23:39;;;;;;;3.00;1.70;;;;;;;;;;10344864;28;20120;-83
2021/09/19 10:28:41;;;;;;;5.80;1.70;;;;;;;;;;10345292;28;20468;-82
2021/09/19 10:33:43;;;;;;;4.40;1.77;;;;;;;;;;10335656;28;20045;-82
2021/09/19 10:38:43;;;;;;;6.90;2.17;;;;;;;;;;10354039;28;20034;-82
2021/09/19 10:44:00;;;;;;;2.93;1.70;;;;;;;;;;10379368;28;20104;-82
2021/09/19 10:49:17;;;;;;;5.43;1.63;;;;;;;;;;10353069;28;20033;-82
2021/09/19 10:54:50;;;;;;;4.85;1.48;;;;;;;;;;10341658;28;20026;-82
2021/09/19 11:00:13;;;;;;;5.78;1.85;;;;;;;;;;10340942;28;20043;-82
2021/09/19 11:05:28;;;;;;;4.22;1.80;;;;;;;;;;10352656;28;20038;-82
2021/09/19 11:10:28;;;;;;;2.88;1.63;;;;;;;;;;10370613;28;20413;-82
2021/09/19 11:15:28;;;;;;;5.00;1.67;;;;;;;;;;10362402;28;20034;-82
2021/09/19 11:20:31;;;;;;;2.27;1.40;;;;;;;;;;10369211;28;20093;-82
2021/09/19 11:25:32;;;;;;;2.25;1.50;;;;;;;;;;10379079;28;20025;-82
2021/09/19 11:30:32;;;;;;;1.90;1.50;;;;;;;;;;10363781;28;20428;-82
2021/09/19 11:35:33;;;;;;;1.93;1.30;;;;;;;;;;10365646;28;20058;-82
2021/09/19 11:40:33;;;;;;;4.07;1.40;;;;;;;;;;10351554;28;20030;-82
2021/09/19 11:45:34;;;;;;;4.32;1.35;;;;;;;;;;10377500;28;20476;-82
2021/09/19 11:50:37;;;;;;;2.70;1.55;;;;;;;;;;10366152;28;20389;-82
2021/09/19 11:55:45;;;;;;;1.95;1.45;;;;;;;;;;10350599;28;20388;-82
2021/09/19 12:00:46;;;;;;;1.63;1.50;;;;;;;;;;10351123;28;20106;-82
2021/09/19 12:05:52;;;;;;;1.73;1.30;;;;;;;;;;10357981;28;20453;-82
2021/09/19 12:10:53;;;;;;;3.42;1.65;;;;;;;;;;10362973;28;20029;-82
2021/09/19 12:16:04;;;;;;;3.80;1.40;;;;;;;;;;10362748;28;20044;-82
2021/09/19 12:21:11;;;;;;;3.72;1.55;;;;;;;;;;10354488;28;20065;-82
2021/09/19 12:26:24;;;;;;;2.42;1.60;;;;;;;;;;10349955;28;20038;-81
2021/09/19 12:31:39;;;;;;;2.08;1.45;;;;;;;;;;10357385;28;20034;-82
2021/09/19 12:36:42;;;;;;;1.42;1.33;;;;;;;;;;10366943;28;20034;-82
2021/09/19 12:41:44;;;;;;;1.98;1.52;;;;;;;;;;10349026;28;20046;-81
2021/09/19 12:46:46;;;;;;;1.60;1.40;;;;;;;;;;10349094;28;20117;-82
2021/09/19 12:52:09;;;;;;;1.40;1.30;;;;;;;;;;10349066;28;20026;-82
2021/09/19 12:57:10;;;;;;;1.98;1.35;;;;;;;;;;10375528;28;20053;-82
2021/09/19 13:02:11;;;;;;;1.58;1.40;;;;;;;;;;10367425;28;20033;-82
2021/09/19 13:07:12;;;;;;;2.25;1.50;;;;;;;;;;10355979;28;20026;-81
2021/09/19 13:12:14;;;;;;;1.45;1.35;;;;;;;;;;10348185;28;20026;-82
2021/09/19 13:17:16;;;;;;;1.27;1.17;;;;;;;;;;10348047;28;20086;-82
2021/09/19 13:22:18;;;;;;;2.25;1.30;;;;;;;;;;10361162;28;20057;-82
2021/09/19 13:27:19;;;;;;;1.50;1.40;;;;;;;;;;10347230;28;20161;-82
2021/09/19 13:32:20;;;;;;;2.42;1.35;;;;;;;;;;10374565;28;20046;-82
2021/09/19 13:37:20;;;;;;;1.87;1.40;;;;;;;;;;10362701;28;20038;-82
2021/09/19 13:42:21;;;;;;;1.52;1.40;;;;;;;;;;10359682;28;20483;-82
2021/09/19 13:47:22;;;;;;;1.43;1.23;;;;;;;;;;10346977;28;20041;-82
2021/09/19 13:52:22;;;;;;;2.83;1.23;;;;;;;;;;10346845;28;20030;-81
2021/09/19 13:57:22;;;;;;;1.97;1.50;;;;;;;;;;10355034;28;20084;-81
2021/09/19 14:02:23;;;;;;;1.63;1.20;;;;;;;;;;10352022;28;20035;-82
2021/09/19 14:07:23;;;;;;;1.37;1.27;;;;;;;;;;10345006;28;20488;-82
2021/09/19 14:12:23;;;;;;;2.40;1.43;;;;;;;;;;10343637;28;20289;-83
2021/09/19 14:17:25;;;;;;;4.45;1.50;;;;;;;;;;10344059;28;20065;-83
2021/09/19 14:22:25;;;;;;;3.15;1.38;;;;;;;;;;10344895;28;20057;-83
2021/09/19 14:27:26;;;;;;;3.40;1.57;;;;;;;;;;10351008;28;20042;-82
2021/09/19 14:32:26;;;;;;;2.50;1.53;;;;;;;;;;10343404;28;20041;-82
2021/09/19 14:37:27;;;;;;;3.47;1.80;;;;;;;;;;10343869;28;20424;-82
2021/09/19 14:42:27;;;;;;;4.63;1.35;;;;;;;;;;10343628;28;20516;-83
2021/09/19 14:47:29;;;;;;;1.40;1.30;;;;;;;;;;10341785;28;20034;-83
2021/09/19 14:52:29;;;;;;;2.15;1.30;;;;;;;;;;10344001;28;20082;-83
2021/09/19 14:57:32;;;;;;;1.40;1.30;;;;;;;;;;10342917;28;20062;-83
2021/09/19 15:02:32;;;;;;;2.40;1.13;;;;;;;;;;10345149;28;20026;-84
2021/09/19 15:07:33;;;;;;;1.42;1.17;;;;;;;;;;10343354;28;20030;-82
2021/09/19 15:12:34;;;;;;;2.07;1.43;;;;;;;;;;10347818;28;20030;-83
2021/09/19 15:17:35;;;;;;;3.35;1.50;;;;;;;;;;10356000;28;20042;-83
2021/09/19 15:22:36;;;;;;;1.60;1.30;;;;;;;;;;10353851;28;20036;-85
2021/09/19 15:27:38;;;;;;;3.72;1.20;;;;;;;;;;10373457;28;20118;-90
2021/09/19 15:32:39;;;;;;;4.30;1.67;;;;;;;;;;10362675;28;20102;-88
2021/09/19 15:37:40;;;;;;;3.97;1.30;;;;;;;;;;10351846;28;20076;-83
2021/09/19 15:42:40;;;;;;;4.15;1.50;;;;;;;;;;10359978;28;20511;-83
2021/09/19 15:47:40;;;;;;;6.03;1.47;;;;;;;;;;10365757;28;20030;-83
2021/09/19 15:52:43;;;;;;;2.70;1.70;;;;;;;;;;10356650;28;20027;-84
2021/09/19 15:57:44;;;;;;;5.45;1.65;;;;;;;;;;10352765;28;20440;-83
2021/09/19 16:02:44;;;;;;;4.38;1.42;;;;;;;;;;10352807;28;20034;-83
2021/09/19 16:07:45;;;;;;;5.13;1.70;;;;;;;;;;10349697;28;20431;-83
2021/09/19 16:12:45;;;;;;;3.77;1.60;;;;;;;;;;10351221;28;20023;-83
2021/09/19 16:17:45;;;;;;;2.03;1.57;;;;;;;;;;10341453;28;20045;-82
2021/09/19 16:22:46;;;;;;;3.90;1.73;;;;;;;;;;10336670;28;20053;-81
2021/09/19 16:27:46;;;;;;;3.53;1.50;;;;;;;;;;10337834;28;20050;-82
2021/09/19 16:32:47;;;;;;;5.43;1.60;;;;;;;;;;10345130;28;20439;-83
2021/09/19 16:37:47;;;;;;;6.93;1.60;;;;;;;;;;10347307;28;20444;-81
2021/09/19 16:42:48;;;;;;;2.67;1.30;;;;;;;;;;10357488;28;20474;-82
2021/09/19 16:47:50;;;;;;;2.88;1.60;;;;;;;;;;10354530;28;20053;-84
2021/09/19 16:52:51;;;;;;;1.83;1.58;;;;;;;;;;10357179;28;20376;-84
2021/09/19 16:57:52;;;;;;;3.75;1.58;;;;;;;;;;10345471;28;20038;-84
2021/09/19 17:02:53;;;;;;;2.10;1.30;;;;;;;;;;10354530;28;20030;-84
2021/09/19 17:07:54;;;;;;;4.25;1.50;;;;;;;;;;10351407;28;20089;-85
2021/09/19 17:12:54;;;;;;;7.03;1.35;;;;;;;;;;10346219;28;20072;-84
2021/09/19 17:17:55;;;;;;;6.00;1.80;;;;;;;;;;10358722;28;20453;-94
2021/09/19 17:22:55;;;;;;;5.07;1.73;;;;;;;;;;10343670;28;20137;-91
2021/09/19 17:27:55;;;;;;;3.17;1.60;;;;;;;;;;10353726;28;20468;-95
2021/09/19 17:32:56;;;;;;;7.43;1.95;;;;;;;;;;10360284;28;20445;-87
2021/09/19 17:37:56;;;;;;;13.33;2.33;;;;;;;;;;10347334;28;20041;-88
2021/09/19 17:42:57;;;;;;;7.65;1.95;;;;;;;;;;10345986;28;20509;-88
2021/09/19 17:47:57;;;;;;;6.07;1.88;;;;;;;;;;10358525;28;20141;-88
2021/09/19 17:52:57;;;;;;;6.07;2.23;;;;;;;;;;10371101;28;20041;-88
2021/09/19 17:57:58;;;;;;;5.47;2.07;;;;;;;;;;10347133;28;20030;-88
2021/09/19 18:02:58;;;;;;;3.33;1.60;;;;;;;;;;10360485;28;20027;-88
2021/09/19 18:07:59;;;;;;;2.83;1.45;;;;;;;;;;10357072;28;20036;-88
2021/09/19 18:12:59;;;;;;;5.10;1.93;;;;;;;;;;10359625;28;20069;-88
2021/09/19 18:18:00;;;;;;;5.15;2.20;;;;;;;;;;10350073;28;20037;-88
2021/09/19 18:23:01;;;;;;;4.60;1.65;;;;;;;;;;10350486;28;20068;-88
2021/09/19 18:28:11;;;;;;;3.00;1.77;;;;;;;;;;10348758;28;20037;-88
2021/09/19 18:33:12;;;;;;;3.55;1.60;;;;;;;;;;10361850;28;20479;-89
2021/09/19 18:38:12;;;;;;;6.22;1.55;;;;;;;;;;10373006;28;20058;-89
2021/09/19 18:43:13;;;;;;;2.73;1.53;;;;;;;;;;10378840;28;20104;-89
2021/09/19 18:48:13;;;;;;;2.03;1.50;;;;;;;;;;10350122;28;20090;-89
2021/09/19 18:53:14;;;;;;;3.20;1.67;;;;;;;;;;10355714;28;20097;-90
2021/09/19 18:58:14;;;;;;;4.85;1.85;;;;;;;;;;10353053;28;20034;-89
2021/09/19 19:03:15;;;;;;;3.13;1.57;;;;;;;;;;10353293;28;20034;-88
2021/09/19 19:08:15;;;;;;;3.23;1.30;;;;;;;;;;10361981;28;20041;-93
2021/09/19 19:13:15;;;;;;;5.13;1.60;;;;;;;;;;10368259;28;20056;-87
2021/09/19 19:18:16;;;;;;;20.87;2.33;;;;;;;;;;10352473;28;20077;-86
2021/09/19 19:23:17;;;;;;;1.70;1.50;;;;;;;;;;10354245;28;20045;-89
2021/09/19 19:28:17;;;;;;;4.78;1.80;;;;;;;;;;10366038;28;20468;-89
2021/09/19 19:33:18;;;;;;;14.63;2.15;;;;;;;;;;10354490;28;20037;-88
2021/09/19 19:38:18;;;;;;;5.07;2.00;;;;;;;;;;10380905;28;20042;-91
2021/09/19 19:43:19;;;;;;;5.73;1.70;;;;;;;;;;10393919;23;20057;-90
2021/09/19 19:48:19;;;;;;;2.25;1.73;;;;;;;;;;10433609;28;20454;-89
2021/09/19 19:53:23;;;;;;;9.00;1.60;;;;;;;;;;10432702;28;20056;-89
2021/09/19 19:58:24;;;;;;;8.80;2.00;;;;;;;;;;10431149;28;20044;-89
2021/09/19 20:03:24;;;;;;;8.02;1.52;;;;;;;;;;10430687;28;20486;-89
2021/09/19 20:08:25;;;;;;;5.38;1.60;;;;;;;;;;10431502;28;20099;-89
2021/09/19 20:13:26;;;;;;;4.68;2.13;;;;;;;;;;10432904;28;20056;-88
2021/09/19 20:18:26;;;;;;;5.57;1.80;;;;;;;;;;10432418;28;20183;-89
2021/09/19 20:23:27;;;;;;;2.47;1.80;;;;;;;;;;10432021;28;20486;-89
2021/09/19 20:28:27;;;;;;;4.17;1.87;;;;;;;;;;10433630;28;20036;-89
2021/09/19 20:33:28;;;;;;;6.60;1.93;;;;;;;;;;10430549;28;20443;-89
2021/09/19 20:38:28;;;;;;;5.28;2.00;;;;;;;;;;10431088;28;20459;-89
2021/09/19 20:43:29;;;;;;;2.33;1.77;;;;;;;;;;10430638;28;20059;-89
2021/09/19 20:48:29;;;;;;;2.50;1.60;;;;;;;;;;10430800;28;20087;-89
2021/09/19 20:53:29;;;;;;;3.60;1.80;;;;;;;;;;10430711;28;20039;-89
2021/09/19 20:58:30;;;;;;;3.60;1.60;;;;;;;;;;10430650;28;20030;-89
2021/09/19 21:03:31;;;;;;;4.20;1.85;;;;;;;;;;10430081;28;20554;-90
2021/09/19 21:08:31;;;;;;;4.83;2.00;;;;;;;;;;10430328;28;20064;-89
2021/09/19 21:13:31;;;;;;;3.87;1.83;;;;;;;;;;10429546;28;20451;-89
2021/09/19 21:18:32;;;;;;;8.10;1.87;;;;;;;;;;10428738;28;20456;-89
2021/09/19 21:23:32;;;;;;;4.20;1.70;;;;;;;;;;10428290;28;20790;-85
2021/09/19 21:28:32;;;;;;;4.03;1.57;;;;;;;;;;10429285;28;20498;-84
2021/09/19 21:33:34;;;;;;;4.40;1.60;;;;;;;;;;10428547;28;20548;-85
2021/09/19 21:38:34;;;;;;;2.90;1.73;;;;;;;;;;10428533;28;20116;-85
2021/09/19 21:43:35;;;;;;;7.27;1.70;;;;;;;;;;10428562;28;20080;-86
2021/09/19 21:48:35;;;;;;;2.97;1.70;;;;;;;;;;10428365;28;20379;-86
2021/09/19 21:53:35;;;;;;;6.07;1.93;;;;;;;;;;10429270;28;20036;-86
2021/09/19 21:58:36;;;;;;;4.60;1.80;;;;;;;;;;10428959;28;20083;-89
2021/09/19 22:03:36;;;;;;;6.37;2.17;;;;;;;;;;10428924;28;20021;-87
2021/09/19 22:08:38;;;;;;;4.03;1.60;;;;;;;;;;10427849;28;20470;-83
2021/09/19 22:13:42;;;;;;;3.00;2.15;;;;;;;;;;10426784;28;20056;-89
